Godthab, Greenland
Current Conditions -  °F | °C
As of 9:50 PM on Tuesday 21 Oct 2014 (Local Time) from BGGH Reporting Station
Broken Clouds Broken Clouds  
Wind Chill: 32°   Ceiling: 8000
Heat Index: 32°   Visibility: 6mi
Dew Point: 27°   Wind: 3mph
Humidity: 80%   Direction: 330°NNW
Pressure: 29.44"   Gusts: NA
Location:  64.18°N, 51.72°W
Report Text: BGGH 212350Z AUTO 33003KT 9999NDV SCT019/// BKN080/// M00/M03 Q0997
Loading
Personal Weather Stations






























Interactive Weather Map
Tropical Storm Tracking
New forecast layout! Learn more

10-Day Weather Forecast

Advertisements
Track Severe Weather on mobile